Tie Siding, Wyoming
Current Conditions -  °F | °C
As of 11:53 PM on Wednesday 22 Oct 2014 (Local Time) from KLAR Reporting Station
Clear Clear  
Wind Chill: 38°   Ceiling: Unl
Heat Index: 44°   Visibility: 10mi
Dew Point: 26°   Wind: 13mph
Humidity: 49%   Direction: 230°SW
Pressure: 30.19"   Gusts: NA
Location:  41.09°N, 105.49°W
Report Text: KLAR 230553Z AUTO 23011KT 10SM CLR 07/M03 A3019 RMK AO2 SLP159 T00671033 10100 20011 58002
Loading
Personal Weather Stations






























Interactive Weather Map
Tropical Storm Tracking
New forecast layout! Learn more

10-Day Weather Forecast

Advertisements
Track Severe Weather on mobile